createdAt,value
2018-04-16T00:01:10.564Z,25.83
2018-04-16T00:03:38.147Z,26.60
2018-04-16T00:06:05.710Z,29.40
2018-04-16T00:08:33.300Z,28.30
2018-04-16T00:11:00.864Z,26.97
2018-04-16T00:13:28.546Z,28.73
2018-04-16T00:15:56.096Z,28.57
2018-04-16T00:18:23.651Z,25.93
2018-04-16T00:20:51.997Z,26.27
2018-04-16T00:23:19.557Z,26.40
2018-04-16T00:25:47.160Z,26.90
2018-04-16T00:28:14.752Z,27.43
2018-04-16T00:30:43.105Z,27.00
2018-04-16T00:33:17.037Z,27.40
2018-04-16T00:35:50.313Z,27.30
2018-04-16T00:38:23.568Z,28.67
2018-04-16T00:40:56.810Z,28.73
2018-04-16T00:43:30.080Z,27.30
2018-04-16T00:46:03.335Z,28.43
2018-04-16T00:48:36.507Z,27.83
2018-04-16T00:51:10.441Z,28.63
2018-04-16T00:53:55.618Z,28.80
2018-04-16T00:56:29.576Z,27.57
2018-04-16T00:59:02.768Z,26.97
2018-04-16T01:01:36.104Z,26.37
2018-04-16T01:04:09.256Z,27.20
2018-04-16T01:09:50.283Z,27.70
2018-04-16T01:12:23.476Z,27.53
2018-04-16T01:14:57.391Z,26.50
2018-04-16T01:17:31.389Z,26.37
2018-04-16T01:20:04.639Z,27.00
2018-04-16T01:22:37.832Z,26.80
2018-04-16T01:25:11.759Z,29.40
2018-04-16T01:27:45.725Z,29.27
2018-04-16T01:30:19.048Z,28.57
2018-04-16T01:32:52.402Z,27.70
2018-04-16T01:35:25.524Z,26.90
2018-04-16T01:37:58.831Z,27.47
2018-04-16T01:40:32.036Z,29.10
2018-04-16T01:43:05.243Z,28.33
2018-04-16T01:45:38.537Z,28.13
2018-04-16T01:48:11.733Z,27.07
2018-04-16T01:50:45.067Z,27.10
2018-04-16T01:53:18.407Z,28.03
2018-04-16T01:55:51.554Z,28.10
2018-04-16T01:58:24.780Z,27.73
2018-04-16T02:00:57.908Z,25.40
2018-04-16T02:03:31.164Z,29.50
2018-04-16T02:06:04.416Z,28.20
2018-04-16T02:08:37.591Z,25.60
2018-04-16T02:11:10.724Z,29.17
2018-04-16T02:13:44.063Z,29.70
2018-04-16T02:16:18.156Z,27.27
2018-04-16T02:18:51.464Z,28.37
2018-04-16T02:21:24.614Z,27.00
2018-04-16T02:23:57.971Z,27.13
2018-04-16T02:26:31.215Z,25.90
2018-04-16T02:29:05.298Z,27.67
2018-04-16T02:31:38.444Z,26.23
2018-04-16T02:34:12.437Z,28.40
2018-04-16T02:36:45.599Z,28.70
2018-04-16T02:39:18.843Z,28.07
2018-04-16T02:41:52.047Z,26.37
2018-04-16T02:44:26.020Z,26.97
2018-04-16T02:46:59.192Z,28.00
2018-04-16T02:49:32.405Z,29.47
2018-04-16T02:52:06.424Z,31.30
2018-04-16T02:54:39.587Z,29.57
2018-04-16T02:57:12.856Z,29.37
2018-04-16T02:59:46.091Z,27.73
2018-04-16T03:05:21.092Z,27.07
2018-04-16T03:07:54.375Z,26.63
2018-04-16T03:10:27.622Z,28.40
2018-04-16T03:13:00.852Z,26.73
2018-04-16T03:15:34.936Z,28.20
2018-04-16T03:21:15.768Z,29.90
2018-04-16T03:23:49.019Z,31.27
2018-04-16T03:26:22.183Z,30.17
2018-04-16T03:28:55.594Z,30.10
2018-04-16T03:31:29.540Z,29.80
2018-04-16T03:34:03.476Z,30.20
2018-04-16T03:36:36.598Z,29.37
2018-04-16T03:39:09.776Z,31.63
2018-04-16T03:41:43.047Z,30.47
2018-04-16T03:44:16.334Z,29.37
2018-04-16T03:46:49.608Z,31.30
2018-04-16T03:49:22.797Z,29.40
2018-04-16T03:51:56.114Z,30.13
2018-04-16T03:54:23.686Z,29.90
2018-04-16T03:56:51.235Z,29.87
2018-04-16T03:59:19.594Z,29.03
2018-04-16T04:01:47.152Z,30.47
2018-04-16T04:04:14.703Z,31.40
2018-04-16T04:06:43.074Z,31.30
2018-04-16T04:09:10.667Z,31.23
2018-04-16T04:11:38.217Z,29.77
2018-04-16T04:14:06.537Z,32.30
2018-04-16T04:16:34.117Z,29.97
2018-04-16T04:19:02.435Z,33.87
2018-04-16T04:21:30.047Z,31.40
2018-04-16T04:27:10.697Z,30.70
2018-04-16T04:29:50.108Z,28.70
2018-04-16T04:32:17.679Z,27.90
2018-04-16T04:34:45.230Z,25.93
2018-04-16T04:37:12.814Z,29.60
2018-04-16T04:39:40.367Z,27.87
2018-04-16T04:42:08.708Z,27.40
2018-04-16T04:44:36.257Z,28.13
2018-04-16T04:47:03.830Z,28.10
2018-04-16T04:49:31.384Z,29.33
2018-04-16T04:51:59.727Z,26.93
2018-04-16T04:54:27.278Z,28.27
2018-04-16T04:56:54.865Z,28.47
2018-04-16T04:59:22.419Z,27.10
2018-04-16T05:01:50.120Z,26.17
2018-04-16T05:04:17.716Z,28.87
2018-04-16T05:06:45.284Z,27.93
2018-04-16T05:09:12.840Z,28.03
2018-04-16T05:11:40.428Z,27.40
2018-04-16T05:14:08.062Z,27.37
2018-04-16T05:16:35.664Z,26.93
2018-04-16T05:19:03.218Z,28.70
2018-04-16T05:21:30.815Z,30.00
2018-04-16T05:23:58.365Z,30.13
2018-04-16T05:26:25.920Z,29.07
2018-04-16T05:28:53.492Z,30.30
2018-04-16T05:31:21.043Z,32.20
2018-04-16T05:33:48.614Z,31.63
2018-04-16T05:36:16.172Z,33.70
2018-04-16T05:38:43.756Z,34.37
2018-04-16T05:41:11.311Z,31.87
2018-04-16T05:43:39.672Z,32.57
2018-04-16T05:46:07.227Z,32.90
2018-04-16T05:48:34.803Z,32.53
2018-04-16T05:51:02.355Z,32.93
2018-04-16T05:53:29.931Z,33.43
2018-04-16T05:55:57.486Z,33.10
2018-04-16T05:58:25.060Z,32.77
2018-04-16T06:00:52.616Z,31.20
2018-04-16T06:03:20.191Z,33.77
2018-04-16T06:05:47.744Z,34.47
2018-04-16T06:08:15.317Z,31.83
2018-04-16T06:10:43.632Z,33.33
2018-04-16T06:13:11.214Z,31.97
2018-04-16T06:15:38.772Z,32.40
2018-04-16T06:18:06.344Z,33.40
2018-04-16T06:20:33.895Z,32.03
2018-04-16T06:23:01.467Z,31.77
2018-04-16T06:25:29.023Z,31.60
2018-04-16T06:27:57.354Z,34.80
2018-04-16T06:30:24.921Z,34.80
2018-04-16T06:32:52.489Z,30.03
2018-04-16T06:35:20.051Z,32.53
2018-04-16T06:37:47.610Z,31.73
2018-04-16T06:40:15.196Z,30.50
2018-04-16T06:42:42.759Z,33.40
2018-04-16T06:45:10.364Z,30.60
2018-04-16T06:47:37.921Z,29.07
2018-04-16T06:50:05.487Z,30.83
2018-04-16T06:52:33.044Z,32.77
2018-04-16T06:55:00.613Z,30.37
2018-04-16T06:57:28.938Z,32.17
2018-04-16T06:59:56.531Z,31.90
2018-04-16T07:02:24.107Z,30.07
2018-04-16T07:04:51.692Z,30.00
2018-04-16T07:07:19.269Z,34.77
2018-04-16T07:09:47.626Z,34.53
2018-04-16T07:12:15.186Z,34.43
2018-04-16T07:14:43.540Z,32.87
2018-04-16T07:17:11.927Z,33.37
2018-04-16T07:19:40.305Z,32.10
2018-04-16T07:22:07.884Z,35.77
2018-04-16T07:24:36.225Z,34.30
2018-04-16T07:27:03.785Z,33.80
2018-04-16T07:29:31.364Z,33.90
2018-04-16T07:31:58.931Z,33.50
2018-04-16T07:34:26.515Z,34.07
2018-04-16T07:36:54.073Z,33.47
2018-04-16T07:39:21.649Z,32.87
2018-04-16T07:41:49.203Z,32.67
2018-04-16T07:44:16.775Z,34.67
2018-04-16T07:46:44.333Z,34.03
2018-04-16T07:49:11.916Z,34.57
2018-04-16T07:51:39.467Z,33.03
2018-04-16T07:54:07.796Z,31.20
2018-04-16T07:56:35.369Z,32.57
2018-04-16T07:59:02.962Z,34.30
2018-04-16T08:01:31.307Z,35.20
2018-04-16T08:03:58.864Z,33.10
2018-04-16T08:06:27.210Z,35.40
2018-04-16T08:08:55.532Z,35.80
2018-04-16T08:11:23.875Z,34.13
2018-04-16T08:13:51.428Z,34.03
2018-04-16T08:16:18.998Z,33.23
2018-04-16T08:18:46.555Z,35.90
2018-04-16T08:21:14.127Z,33.47
2018-04-16T08:23:41.701Z,31.97
2018-04-16T08:26:09.276Z,33.10
2018-04-16T08:28:36.837Z,34.90
2018-04-16T08:31:05.173Z,34.10
2018-04-16T08:33:32.727Z,34.40
2018-04-16T08:36:00.312Z,34.60
2018-04-16T08:38:27.874Z,33.87
2018-04-16T08:40:55.456Z,33.77
2018-04-16T08:43:23.011Z,36.30
2018-04-16T08:45:50.579Z,37.40
2018-04-16T08:48:18.137Z,36.13
2018-04-16T08:50:45.720Z,34.20
2018-04-16T08:53:13.280Z,35.27
2018-04-16T08:55:40.857Z,37.73
2018-04-16T08:58:08.412Z,36.00
2018-04-16T09:00:36.789Z,37.20
2018-04-16T09:03:04.338Z,36.70
2018-04-16T09:05:31.919Z,35.83
2018-04-16T09:07:59.478Z,34.63
2018-04-16T09:10:27.061Z,35.77
2018-04-16T09:12:54.619Z,34.03
2018-04-16T09:15:22.195Z,36.30
2018-04-16T09:17:49.751Z,35.37
2018-04-16T09:20:17.301Z,34.07
2018-04-16T09:22:44.887Z,35.30
2018-04-16T09:25:12.440Z,36.90
2018-04-16T09:27:40.014Z,35.40
2018-04-16T09:30:07.576Z,35.63
2018-04-16T09:32:35.159Z,35.93
2018-04-16T09:35:02.718Z,38.40
2018-04-16T09:37:30.301Z,36.30
2018-04-16T09:39:57.861Z,33.27
2018-04-16T09:42:25.440Z,32.63
2018-04-16T09:44:52.999Z,33.77
2018-04-16T09:47:21.342Z,33.83
2018-04-16T09:49:48.895Z,33.00
2018-04-16T09:52:16.463Z,38.73
2018-04-16T09:54:44.030Z,38.70
2018-04-16T09:57:11.615Z,35.73
2018-04-16T09:59:39.172Z,36.43
2018-04-16T10:05:13.459Z,34.87
2018-04-16T10:07:41.032Z,33.67
2018-04-16T10:10:08.588Z,36.00
2018-04-16T10:12:36.167Z,35.50
2018-04-16T10:15:03.730Z,34.30
2018-04-16T10:17:31.308Z,39.23
2018-04-16T10:19:58.868Z,36.07
2018-04-16T10:22:26.440Z,36.57
2018-04-16T10:24:54.001Z,38.17
2018-04-16T10:27:21.621Z,37.80
2018-04-16T10:29:49.173Z,36.53
2018-04-16T10:32:16.751Z,36.33
2018-04-16T10:34:44.308Z,35.23
2018-04-16T10:37:11.888Z,37.90
2018-04-16T10:39:39.443Z,34.47
2018-04-16T10:42:07.015Z,37.27
2018-04-16T10:44:34.573Z,36.47
2018-04-16T10:47:02.153Z,35.30
2018-04-16T10:49:29.713Z,35.50
2018-04-16T10:51:57.294Z,33.73
2018-04-16T10:54:24.847Z,32.93
2018-04-16T10:56:53.188Z,36.63
2018-04-16T10:59:20.747Z,34.10
2018-04-16T11:01:48.321Z,35.20
2018-04-16T11:04:15.883Z,37.90
2018-04-16T11:06:43.455Z,33.80
2018-04-16T11:09:11.020Z,34.70
2018-04-16T11:11:38.595Z,36.23
2018-04-16T11:14:06.152Z,32.10
2018-04-16T11:16:33.733Z,34.00
2018-04-16T11:19:01.295Z,32.70
2018-04-16T11:21:28.856Z,34.20
2018-04-16T11:23:57.204Z,32.73
2018-04-16T11:26:24.777Z,34.30
2018-04-16T11:28:52.369Z,34.83
2018-04-16T11:31:19.920Z,31.77
2018-04-16T11:33:47.514Z,31.30
2018-04-16T11:36:15.840Z,29.87
2018-04-16T11:38:43.420Z,33.37
2018-04-16T11:41:10.980Z,31.70
2018-04-16T11:43:38.561Z,28.77
2018-04-16T11:46:06.140Z,28.20
2018-04-16T11:48:33.736Z,33.43
2018-04-16T11:51:01.296Z,30.07
2018-04-16T11:53:28.868Z,30.03
2018-04-16T11:55:56.420Z,32.83
2018-04-16T11:58:23.991Z,29.50
2018-04-16T12:00:51.547Z,28.40
2018-04-16T12:03:19.188Z,28.40
2018-04-16T12:05:46.745Z,27.13
2018-04-16T12:08:14.305Z,27.23
2018-04-16T12:10:41.884Z,29.53
2018-04-16T12:13:09.441Z,28.50
2018-04-16T12:15:37.021Z,27.87
2018-04-16T12:18:04.580Z,27.40
2018-04-16T12:20:32.161Z,28.60
2018-04-16T12:22:59.725Z,27.07
2018-04-16T12:25:27.309Z,27.10
2018-04-16T12:27:54.871Z,29.20
2018-04-16T12:30:22.449Z,25.77
2018-04-16T12:32:50.009Z,25.50
2018-04-16T12:35:17.583Z,26.57
2018-04-16T12:37:45.137Z,26.50
2018-04-16T12:40:12.715Z,28.27
2018-04-16T12:42:40.271Z,29.33
2018-04-16T12:45:07.849Z,26.93
2018-04-16T12:47:35.403Z,28.03
2018-04-16T12:50:03.745Z,26.70
2018-04-16T12:52:31.303Z,28.20
2018-04-16T12:54:58.880Z,28.40
2018-04-16T12:57:26.439Z,27.60
2018-04-16T12:59:54.020Z,29.83
2018-04-16T13:02:21.576Z,26.97
2018-04-16T13:04:49.147Z,28.20
2018-04-16T13:07:16.729Z,30.13
2018-04-16T13:09:44.288Z,27.93
2018-04-16T13:12:11.864Z,29.20
2018-04-16T13:14:39.430Z,28.20
2018-04-16T13:17:07.013Z,26.30
2018-04-16T13:19:34.566Z,30.47
2018-04-16T13:22:02.164Z,29.40
2018-04-16T13:24:29.722Z,29.60
2018-04-16T13:26:57.300Z,30.00
2018-04-16T13:29:24.858Z,28.03
2018-04-16T13:31:52.436Z,28.90
2018-04-16T13:34:19.987Z,27.67
2018-04-16T13:36:48.339Z,28.93
2018-04-16T13:39:15.904Z,29.07
2018-04-16T13:41:43.478Z,27.97
2018-04-16T13:44:11.033Z,26.87
2018-04-16T13:46:38.616Z,27.80
2018-04-16T13:49:06.180Z,25.90
2018-04-16T13:51:33.751Z,29.77
2018-04-16T13:54:01.308Z,27.30
2018-04-16T13:56:28.885Z,29.23
2018-04-16T13:58:56.448Z,27.30
2018-04-16T14:01:24.025Z,27.07
2018-04-16T14:03:51.581Z,28.40
2018-04-16T14:06:19.160Z,28.67
2018-04-16T14:08:46.717Z,29.93
2018-04-16T14:11:14.337Z,28.40
2018-04-16T14:13:42.660Z,31.70
2018-04-16T14:16:13.964Z,32.00
2018-04-16T14:18:41.525Z,30.00
2018-04-16T14:21:09.081Z,33.37
2018-04-16T14:23:36.663Z,32.80
2018-04-16T14:26:04.254Z,31.00
2018-04-16T14:28:31.831Z,33.57
2018-04-16T14:30:59.388Z,32.43
2018-04-16T14:33:26.972Z,32.47
2018-04-16T14:35:54.536Z,33.07
2018-04-16T14:38:22.121Z,32.03
2018-04-16T14:40:49.681Z,34.40
2018-04-16T14:43:17.262Z,31.70
2018-04-16T14:45:44.845Z,31.30
2018-04-16T14:48:12.442Z,33.70
2018-04-16T14:50:40.075Z,34.60
2018-04-16T14:53:07.892Z,33.23
2018-04-16T14:55:36.492Z,35.17
2018-04-16T14:58:04.164Z,34.70
2018-04-16T15:00:31.792Z,35.03
2018-04-16T15:02:59.376Z,38.27
2018-04-16T15:05:26.935Z,37.77
2018-04-16T15:07:54.511Z,37.80
2018-04-16T15:10:22.060Z,37.20
2018-04-16T15:12:49.644Z,36.40
2018-04-16T15:15:17.200Z,38.80
2018-04-16T15:17:44.767Z,38.60
2018-04-16T15:20:13.083Z,38.23
2018-04-16T15:22:40.667Z,38.10
2018-04-16T15:25:08.352Z,41.70
2018-04-16T15:27:35.985Z,39.47
2018-04-16T15:30:03.568Z,39.50
2018-04-16T15:32:31.129Z,41.90
2018-04-16T15:34:58.751Z,40.50
2018-04-16T15:37:26.322Z,37.93
2018-04-16T15:39:53.934Z,40.00
2018-04-16T15:42:21.519Z,41.23
2018-04-16T15:44:49.103Z,41.37
2018-04-16T15:47:16.664Z,40.30
2018-04-16T15:49:44.260Z,40.30
2018-04-16T15:52:11.855Z,40.10
2018-04-16T15:54:39.437Z,36.20
2018-04-16T15:57:07.017Z,41.13
2018-04-16T15:59:34.588Z,39.37
2018-04-16T16:02:02.142Z,42.10
2018-04-16T16:04:29.724Z,40.07
2018-04-16T16:06:57.296Z,41.00
2018-04-16T16:09:24.884Z,40.43
2018-04-16T16:11:53.228Z,41.20
2018-04-16T16:14:21.568Z,39.53
2018-04-16T16:16:50.568Z,39.13
2018-04-16T16:19:18.916Z,40.60
2018-04-16T16:21:46.475Z,39.23
2018-04-16T16:24:20.105Z,39.50
2018-04-16T16:26:47.985Z,38.70
2018-04-16T16:29:15.566Z,39.47
2018-04-16T16:31:43.120Z,39.10
2018-04-16T16:34:17.540Z,38.53
2018-04-16T16:36:45.449Z,46.27
2018-04-16T16:39:13.053Z,39.90
2018-04-16T16:41:41.382Z,40.07
2018-04-16T16:44:15.084Z,40.93
2018-04-16T16:46:44.764Z,40.37
2018-04-16T16:49:18.428Z,42.50
2018-04-16T16:51:46.339Z,43.10
2018-04-16T16:54:16.531Z,40.97
2018-04-16T16:56:44.120Z,43.10
2018-04-16T16:59:11.674Z,42.37
2018-04-16T17:01:45.764Z,42.77
2018-04-16T17:04:13.320Z,41.70
2018-04-16T17:06:40.895Z,42.20
2018-04-16T17:09:13.231Z,43.57
2018-04-16T17:11:40.814Z,42.30
2018-04-16T17:14:08.374Z,45.20
2018-04-16T17:16:43.813Z,46.10
2018-04-16T17:19:16.829Z,45.10
2018-04-16T17:21:45.470Z,42.17
2018-04-16T17:24:13.029Z,43.40
2018-04-16T17:26:46.549Z,42.40
2018-04-16T17:29:18.897Z,44.13
2018-04-16T17:31:47.057Z,44.13
2018-04-16T17:34:15.392Z,45.57
2018-04-16T17:36:42.973Z,45.03
2018-04-16T17:39:17.572Z,45.20
2018-04-16T17:41:51.061Z,45.57
2018-04-16T17:44:19.443Z,46.23
2018-04-16T17:46:55.364Z,45.20
2018-04-16T17:49:23.705Z,44.77
2018-04-16T17:51:51.331Z,46.90
2018-04-16T17:54:18.891Z,45.90
2018-04-16T17:56:46.468Z,48.40
2018-04-16T17:59:16.288Z,47.40
2018-04-16T18:01:43.880Z,47.27
2018-04-16T18:04:11.539Z,49.90
2018-04-16T18:06:39.064Z,50.40
2018-04-16T18:09:06.626Z,48.73
2018-04-16T18:11:34.203Z,47.97
2018-04-16T18:14:01.762Z,49.00
2018-04-16T18:16:29.397Z,48.63
2018-04-16T18:18:57.742Z,47.33
2018-04-16T18:21:25.321Z,47.80
2018-04-16T18:23:52.936Z,48.40
2018-04-16T18:26:20.499Z,47.97
2018-04-16T18:28:48.084Z,47.47
2018-04-16T18:31:15.644Z,52.93
2018-04-16T18:33:43.222Z,52.13
2018-04-16T18:36:10.789Z,48.70
2018-04-16T18:38:38.371Z,49.60
2018-04-16T18:41:05.927Z,51.37
2018-04-16T18:43:33.504Z,50.33
2018-04-16T18:46:01.065Z,52.20
2018-04-16T18:48:28.652Z,52.80
2018-04-16T18:50:56.216Z,51.87
2018-04-16T18:53:23.806Z,52.97
2018-04-16T18:55:51.396Z,50.50
2018-04-16T18:58:18.977Z,48.90
2018-04-16T19:00:46.536Z,50.20
2018-04-16T19:03:14.124Z,51.20
2018-04-16T19:05:41.745Z,51.00
2018-04-16T19:08:09.349Z,47.80
2018-04-16T19:10:36.939Z,49.40
2018-04-16T19:13:05.334Z,50.07
2018-04-16T19:15:32.924Z,46.77
2018-04-16T19:18:00.492Z,49.50
2018-04-16T19:20:33.644Z,47.67
2018-04-16T19:23:01.210Z,46.90
2018-04-16T19:25:28.803Z,48.10
2018-04-16T19:28:02.204Z,48.40
2018-04-16T19:30:29.787Z,45.87
2018-04-16T19:33:03.157Z,45.80
2018-04-16T19:35:30.735Z,45.43
2018-04-16T19:37:58.292Z,41.97
2018-04-16T19:40:26.731Z,44.10
2018-04-16T19:42:54.289Z,43.77
2018-04-16T19:45:21.880Z,43.33
2018-04-16T19:47:49.436Z,43.40
2018-04-16T19:50:17.014Z,45.63
2018-04-16T19:52:44.589Z,44.03
2018-04-16T19:55:12.164Z,44.90
2018-04-16T19:57:45.439Z,44.20
2018-04-16T20:00:13.025Z,43.43
2018-04-16T20:02:46.196Z,44.13
2018-04-16T20:05:14.533Z,44.00
2018-04-16T20:07:42.093Z,45.43
2018-04-16T20:10:09.684Z,45.27
2018-04-16T20:12:37.244Z,44.43
2018-04-16T20:15:04.837Z,47.60
2018-04-16T20:17:32.388Z,46.10
2018-04-16T20:19:59.945Z,47.43
2018-04-16T20:22:27.525Z,48.60
2018-04-16T20:24:55.098Z,48.00
2018-04-16T20:27:22.673Z,47.43
2018-04-16T20:29:50.255Z,50.27
2018-04-16T20:32:17.824Z,48.40
2018-04-16T20:34:45.389Z,50.80
2018-04-16T20:37:12.967Z,48.70
2018-04-16T20:39:40.516Z,48.27
2018-04-16T20:42:08.095Z,47.10
2018-04-16T20:44:35.821Z,48.47
2018-04-16T20:47:03.513Z,48.10
2018-04-16T20:49:31.096Z,45.23
2018-04-16T20:51:58.660Z,47.63
2018-04-16T20:54:27.076Z,48.07
2018-04-16T20:56:54.654Z,47.00
2018-04-16T20:59:22.219Z,49.63
2018-04-16T21:01:49.801Z,46.90
2018-04-16T21:04:17.360Z,49.87
2018-04-16T21:06:44.941Z,46.30
2018-04-16T21:09:12.496Z,47.27
2018-04-16T21:11:40.081Z,48.90
2018-04-16T21:14:07.637Z,50.30
2018-04-16T21:16:35.216Z,48.30
2018-04-16T21:19:02.775Z,47.00
2018-04-16T21:21:31.124Z,47.50
2018-04-16T21:23:58.685Z,48.47
2018-04-16T21:26:26.280Z,45.37
2018-04-16T21:28:53.842Z,48.33
2018-04-16T21:31:21.407Z,46.70
2018-04-16T21:33:49.019Z,45.97
2018-04-16T21:36:17.339Z,45.57
2018-04-16T21:38:44.924Z,47.53
2018-04-16T21:41:12.479Z,46.20
2018-04-16T21:43:40.064Z,46.50
2018-04-16T21:46:07.621Z,44.47
2018-04-16T21:48:35.215Z,45.57
2018-04-16T21:51:02.783Z,46.33
2018-04-16T21:53:30.368Z,45.37
2018-04-16T21:55:57.925Z,44.90
2018-04-16T21:58:25.492Z,45.63
2018-04-16T22:00:53.049Z,42.00
2018-04-16T22:03:20.623Z,44.77
2018-04-16T22:05:48.207Z,46.07
2018-04-16T22:08:15.778Z,40.40
2018-04-16T22:10:43.327Z,38.93
2018-04-16T22:13:10.899Z,44.03
2018-04-16T22:15:38.458Z,41.50
2018-04-16T22:18:06.817Z,41.00
2018-04-16T22:20:34.369Z,40.53
2018-04-16T22:23:01.914Z,42.33
2018-04-16T22:25:29.485Z,38.20
2018-04-16T22:27:57.041Z,38.93
2018-04-16T22:30:24.659Z,40.07
2018-04-16T22:32:52.211Z,39.67
2018-04-16T22:35:19.790Z,42.07
2018-04-16T22:37:47.344Z,42.90
2018-04-16T22:40:14.920Z,40.87
2018-04-16T22:42:42.525Z,40.60
2018-04-16T22:45:10.080Z,42.47
2018-04-16T22:47:37.623Z,39.50
2018-04-16T22:50:05.198Z,38.97
2018-04-16T22:52:32.758Z,37.77
2018-04-16T22:55:00.333Z,39.20
2018-04-16T22:57:27.888Z,38.70
2018-04-16T22:59:56.224Z,40.17
2018-04-16T23:02:23.775Z,39.00
2018-04-16T23:04:51.344Z,39.63
2018-04-16T23:07:18.904Z,41.57
2018-04-16T23:09:46.494Z,41.63
2018-04-16T23:12:14.124Z,42.20
2018-04-16T23:14:41.704Z,43.87
2018-04-16T23:17:10.025Z,42.20
2018-04-16T23:19:37.601Z,41.07
2018-04-16T23:22:05.156Z,38.67
2018-04-16T23:24:32.736Z,45.57
2018-04-16T23:27:00.291Z,49.80
2018-04-16T23:29:28.652Z,48.60
2018-04-16T23:31:56.212Z,46.13
2018-04-16T23:34:23.776Z,47.73
2018-04-16T23:36:51.353Z,46.30
2018-04-16T23:39:18.902Z,44.37
2018-04-16T23:41:46.475Z,44.20
2018-04-16T23:44:14.018Z,40.50
2018-04-16T23:46:42.896Z,42.60
2018-04-16T23:49:10.448Z,42.67
2018-04-16T23:51:38.022Z,39.43
2018-04-16T23:54:05.578Z,40.60
2018-04-16T23:56:33.148Z,40.47
2018-04-16T23:59:00.708Z,41.63
